Time;durP1;ratioP1;P1;durP2;ratioP2;P2;SDS_P1;SDS_P2;PMS_P1;PMS_P2;Temp;Humidity;BMP_temperature;BMP_pressure;BME280_temperature;BME280_humidity;BME280_pressure;Samples;Min_cycle;Max_cycle;Signal;HPM_P1;HPM_P2
2022/12/23 00:01:03;;;;;;;115.43;31.17;;;6.10;99.90;;;;;;5032271;28;20096;-83
2022/12/23 00:03:30;;;;;;;114.40;30.25;;;6.10;99.90;;;;;;5032198;28;20481;-83
2022/12/23 00:05:56;;;;;;;121.28;29.88;;;6.10;99.90;;;;;;5032184;28;20057;-83
2022/12/23 00:08:23;;;;;;;112.35;29.92;;;6.20;99.90;;;;;;5032234;28;20053;-83
2022/12/23 00:10:50;;;;;;;106.10;29.92;;;6.10;99.90;;;;;;5032481;28;20048;-83
2022/12/23 00:16:10;;;;;;;96.55;26.98;;;6.20;99.90;;;;;;5032323;28;20076;-83
2022/12/23 00:18:37;;;;;;;99.55;28.10;;;6.20;99.90;;;;;;5032153;28;20103;-83
2022/12/23 00:21:14;;;;;;;127.20;33.13;;;6.20;99.90;;;;;;5032219;28;20045;-83
2022/12/23 00:23:42;;;;;;;147.07;35.88;;;6.10;99.90;;;;;;5032380;28;20469;-83
2022/12/23 00:26:14;;;;;;;155.43;38.70;;;6.10;99.90;;;;;;5032143;28;20053;-83
2022/12/23 00:28:40;;;;;;;158.95;36.83;;;6.20;99.90;;;;;;5032056;28;20041;-83
2022/12/23 00:31:07;;;;;;;150.63;38.50;;;6.20;99.90;;;;;;5033369;28;20048;-83
2022/12/23 00:33:41;;;;;;;168.55;36.35;;;6.10;99.90;;;;;;5031985;28;20076;-83
2022/12/23 00:36:18;;;;;;;135.25;36.67;;;6.20;99.90;;;;;;5032119;28;20052;-83
2022/12/23 00:44:12;;;;;;;170.40;41.53;;;6.10;99.90;;;;;;5033414;28;20143;-83
2022/12/23 00:46:37;;;;;;;166.38;39.55;;;6.20;99.90;;;;;;5036639;28;20096;-83
2022/12/23 00:51:48;;;;;;;154.75;35.33;;;6.20;99.90;;;;;;5035425;28;20081;-82
2022/12/23 00:54:14;;;;;;;154.98;35.85;;;6.20;99.90;;;;;;5035697;28;20087;-83
2022/12/23 00:56:40;;;;;;;127.63;34.85;;;6.20;99.90;;;;;;5035299;28;20421;-83
2022/12/23 00:59:05;;;;;;;149.48;35.95;;;6.20;99.90;;;;;;5035887;28;20056;-83
2022/12/23 01:07:03;;;;;;;132.77;36.17;;;6.10;99.90;;;;;;5035306;28;20390;-83
2022/12/23 01:09:29;;;;;;;140.27;34.35;;;6.10;99.90;;;;;;5035281;28;20103;-83
2022/12/23 01:11:55;;;;;;;130.15;35.75;;;6.00;99.90;;;;;;5035537;28;20041;-83
2022/12/23 01:14:21;;;;;;;150.30;35.15;;;6.10;99.90;;;;;;5035040;28;20523;-83
2022/12/23 01:16:47;;;;;;;122.78;33.28;;;6.10;99.90;;;;;;5036265;28;20053;-83
2022/12/23 01:19:12;;;;;;;139.27;35.88;;;6.10;99.90;;;;;;5035023;28;20049;-83
2022/12/23 01:21:38;;;;;;;130.18;34.25;;;6.00;99.90;;;;;;5036100;28;20052;-82
2022/12/23 01:24:04;;;;;;;133.18;33.42;;;6.10;99.90;;;;;;5034879;28;20145;-82
2022/12/23 01:26:30;;;;;;;133.90;34.50;;;6.10;99.90;;;;;;5034794;28;20037;-83
2022/12/23 01:28:56;;;;;;;121.47;32.80;;;6.10;99.90;;;;;;5034874;28;20056;-83
2022/12/23 01:31:24;;;;;;;126.65;31.50;;;6.10;99.90;;;;;;5035080;28;20099;-83
2022/12/23 01:33:50;;;;;;;129.88;31.88;;;6.10;99.90;;;;;;5034736;28;20469;-83
2022/12/23 01:36:16;;;;;;;115.90;31.65;;;6.00;99.90;;;;;;5035074;28;20055;-83
2022/12/23 01:38:42;;;;;;;128.65;32.47;;;6.00;99.90;;;;;;5035804;28;20480;-83
2022/12/23 01:42:42;;;;;;;131.07;32.20;;;6.10;99.90;;;;;;5034559;28;20052;-83
2022/12/23 01:43:59;;;;;;;122.22;32.53;;;6.10;99.90;;;;;;5034701;28;20084;-83
2022/12/23 01:46:25;;;;;;;195.93;38.63;;;6.10;99.90;;;;;;5034448;28;20135;-83
2022/12/23 01:48:51;;;;;;;139.80;34.13;;;6.10;99.90;;;;;;5034592;28;20478;-84
2022/12/23 01:51:28;;;;;;;130.77;32.88;;;6.10;99.90;;;;;;5034548;28;20080;-83
2022/12/23 01:53:59;;;;;;;133.93;35.17;;;6.10;99.90;;;;;;5034629;28;20108;-83
2022/12/23 01:56:35;;;;;;;140.10;34.72;;;6.00;99.90;;;;;;5033334;28;20052;-83
2022/12/23 02:04:43;;;;;;;212.27;34.83;;;6.10;99.90;;;;;;5034222;28;20049;-83
2022/12/23 02:09:54;;;;;;;174.88;38.72;;;6.00;99.90;;;;;;5034245;28;20052;-83
2022/12/23 02:12:44;;;;;;;142.07;35.38;;;6.10;99.90;;;;;;5034435;28;20045;-83
2022/12/23 02:18:33;;;;;;;190.32;33.72;;;5.90;99.90;;;;;;5034022;28;20079;-83
2022/12/23 02:20:59;;;;;;;151.70;30.73;;;6.00;99.90;;;;;;5033759;28;20435;-83
2022/12/23 02:23:43;;;;;;;139.93;34.45;;;6.00;99.90;;;;;;5034269;28;20184;-83
2022/12/23 02:26:32;;;;;;;126.15;29.27;;;6.00;99.90;;;;;;5034106;28;20049;-83
2022/12/23 02:29:43;;;;;;;144.55;34.17;;;6.00;99.90;;;;;;5033845;28;20053;-83
2022/12/23 02:32:14;;;;;;;113.55;30.13;;;6.00;99.90;;;;;;5030764;28;20054;-83
2022/12/23 02:35:08;;;;;;;230.57;36.22;;;5.90;99.90;;;;;;5034214;28;20049;-84
2022/12/23 02:37:47;;;;;;;140.88;32.17;;;6.00;99.90;;;;;;5033463;28;20471;-84
2022/12/23 02:40:15;;;;;;;127.45;32.25;;;5.90;99.90;;;;;;5033609;28;20073;-84
2022/12/23 02:42:56;;;;;;;125.63;33.10;;;5.90;99.90;;;;;;5033542;28;20053;-84
2022/12/23 02:45:38;;;;;;;138.77;31.42;;;6.00;99.90;;;;;;5033224;28;20145;-83
2022/12/23 02:48:14;;;;;;;129.00;32.35;;;5.80;99.90;;;;;;5033317;28;20057;-84
2022/12/23 02:50:44;;;;;;;130.40;33.13;;;6.00;99.90;;;;;;5033611;28;20037;-83
2022/12/23 02:53:26;;;;;;;127.47;34.10;;;5.90;99.90;;;;;;5033418;28;20052;-84
2022/12/23 02:55:54;;;;;;;139.63;31.85;;;5.90;99.90;;;;;;5033443;28;20121;-83
2022/12/23 02:58:26;;;;;;;119.63;31.98;;;5.90;99.90;;;;;;5033104;28;20488;-83
2022/12/23 03:00:52;;;;;;;119.00;30.40;;;5.80;99.90;;;;;;5033038;28;20053;-84
2022/12/23 03:03:20;;;;;;;109.93;31.80;;;5.90;99.90;;;;;;5033066;28;20529;-84
2022/12/23 03:05:49;;;;;;;121.45;32.15;;;5.90;99.90;;;;;;5033357;28;20079;-84
2022/12/23 03:08:23;;;;;;;148.25;31.50;;;5.80;99.90;;;;;;5033131;28;20077;-84
2022/12/23 03:11:07;;;;;;;110.65;28.80;;;5.90;99.90;;;;;;5033103;28;20492;-84
2022/12/23 03:13:57;;;;;;;121.55;30.50;;;5.90;99.90;;;;;;5033233;28;20110;-83
2022/12/23 03:16:27;;;;;;;118.70;29.92;;;5.90;99.90;;;;;;5032985;28;20397;-84
2022/12/23 03:19:06;;;;;;;124.95;31.67;;;5.80;99.90;;;;;;5032907;28;20137;-84
2022/12/23 03:21:51;;;;;;;119.15;30.83;;;5.80;99.90;;;;;;5032821;28;20045;-83
2022/12/23 03:24:23;;;;;;;109.25;28.15;;;5.90;99.90;;;;;;5033045;28;20057;-83
2022/12/23 03:26:59;;;;;;;101.38;27.55;;;5.80;99.90;;;;;;5032688;28;20077;-84
2022/12/23 03:29:42;;;;;;;108.97;27.77;;;6.00;99.90;;;;;;5032872;28;20048;-84
2022/12/23 03:32:14;;;;;;;109.68;27.67;;;5.90;99.90;;;;;;5032885;28;20059;-84
2022/12/23 03:34:45;;;;;;;117.82;27.85;;;5.90;99.90;;;;;;5154980;22;20579;-84
2022/12/23 03:37:15;;;;;;;109.97;27.80;;;6.00;99.90;;;;;;5012930;28;20042;-84
2022/12/23 03:40:00;;;;;;;108.15;28.58;;;6.00;99.90;;;;;;5013155;28;20061;-84
2022/12/23 03:42:30;;;;;;;122.55;29.58;;;5.90;99.90;;;;;;5013150;28;20129;-84
2022/12/23 03:44:58;;;;;;;128.40;30.48;;;6.00;99.90;;;;;;5012943;28;20120;-84
2022/12/23 03:47:28;;;;;;;115.68;29.73;;;6.00;99.90;;;;;;5012770;28;20432;-84
2022/12/23 03:49:59;;;;;;;126.85;30.30;;;6.00;99.90;;;;;;5012596;28;20050;-84
2022/12/23 03:52:34;;;;;;;121.72;31.55;;;6.00;99.90;;;;;;5012876;28;20041;-84
2022/12/23 03:55:04;;;;;;;119.32;28.73;;;5.80;99.90;;;;;;5012805;28;20041;-84
2022/12/23 03:57:39;;;;;;;110.75;29.23;;;5.90;99.90;;;;;;5014015;28;20077;-83
2022/12/23 04:00:05;;;;;;;124.85;31.65;;;5.90;99.90;;;;;;5012636;28;20083;-84
2022/12/23 04:02:50;;;;;;;121.32;33.03;;;5.90;99.90;;;;;;5012314;28;20049;-84
2022/12/23 04:05:25;;;;;;;125.65;28.67;;;5.80;99.90;;;;;;5012744;28;20049;-84
2022/12/23 04:08:02;;;;;;;118.78;31.23;;;5.80;99.90;;;;;;5012525;28;20076;-84
2022/12/23 04:10:29;;;;;;;121.93;28.55;;;5.80;99.90;;;;;;5012827;28;20097;-84
2022/12/23 04:12:54;;;;;;;130.63;34.33;;;5.80;99.90;;;;;;5012679;28;20506;-84
2022/12/23 04:15:25;;;;;;;155.13;30.70;;;5.90;99.90;;;;;;5012606;28;20061;-83
2022/12/23 04:17:53;;;;;;;180.80;34.15;;;5.80;99.90;;;;;;5012372;28;20095;-83
2022/12/23 04:20:18;;;;;;;128.80;30.25;;;5.90;99.90;;;;;;5015562;28;20497;-83
2022/12/23 04:22:44;;;;;;;156.05;31.73;;;5.80;99.90;;;;;;5016385;28;20050;-84
2022/12/23 04:25:12;;;;;;;139.45;29.30;;;5.80;99.90;;;;;;5016640;28;20046;-84
2022/12/23 04:27:37;;;;;;;120.30;29.58;;;5.80;99.90;;;;;;5016292;28;20062;-84
2022/12/23 04:30:05;;;;;;;129.30;28.15;;;5.90;99.90;;;;;;5016326;28;20053;-84
2022/12/23 04:32:30;;;;;;;115.40;28.85;;;5.80;99.90;;;;;;5016117;28;20057;-84
2022/12/23 04:34:56;;;;;;;103.38;29.38;;;5.90;99.90;;;;;;5016261;28;20050;-84
2022/12/23 04:37:22;;;;;;;108.57;28.48;;;5.90;99.90;;;;;;5016098;28;20398;-84
2022/12/23 04:39:47;;;;;;;125.82;29.33;;;5.80;99.90;;;;;;5017387;28;20048;-84
2022/12/23 04:42:13;;;;;;;123.43;28.50;;;5.70;99.90;;;;;;5015987;28;20129;-84
2022/12/23 04:44:38;;;;;;;112.50;28.05;;;5.80;99.90;;;;;;5015853;28;20042;-84
2022/12/23 04:47:04;;;;;;;110.32;28.05;;;5.70;99.90;;;;;;5015931;28;20053;-84
2022/12/23 04:49:30;;;;;;;119.97;29.77;;;5.80;99.90;;;;;;5015855;28;20052;-84
2022/12/23 04:51:56;;;;;;;108.28;26.27;;;5.70;99.90;;;;;;5016127;28;20129;-84
2022/12/23 04:54:22;;;;;;;114.13;26.35;;;5.90;99.90;;;;;;5015871;28;20073;-84
2022/12/23 04:56:47;;;;;;;101.18;25.02;;;5.80;99.90;;;;;;5015774;28;20048;-84
2022/12/23 04:59:13;;;;;;;94.45;23.95;;;5.90;99.90;;;;;;5015849;28;20042;-84
2022/12/23 05:01:41;;;;;;;96.32;22.77;;;5.70;99.90;;;;;;5015450;28;20452;-84
2022/12/23 05:04:07;;;;;;;147.15;24.55;;;5.70;99.90;;;;;;5015596;28;20500;-84
2022/12/23 05:06:33;;;;;;;140.73;24.85;;;5.80;99.90;;;;;;5015631;28;20050;-83
2022/12/23 05:08:59;;;;;;;100.00;20.13;;;5.90;99.90;;;;;;5015569;28;20041;-84
2022/12/23 05:11:24;;;;;;;106.68;18.27;;;5.70;99.90;;;;;;5015514;28;20050;-84
2022/12/23 05:13:50;;;;;;;70.82;18.02;;;5.70;99.90;;;;;;5015344;28;20065;-84
2022/12/23 05:16:16;;;;;;;126.85;21.17;;;5.80;99.90;;;;;;5016728;28;20049;-84
2022/12/23 05:18:41;;;;;;;81.63;19.00;;;5.80;99.90;;;;;;5015456;28;20429;-84
2022/12/23 05:21:07;;;;;;;141.20;21.70;;;5.80;99.90;;;;;;5015186;28;20069;-84
2022/12/23 05:23:33;;;;;;;192.02;23.50;;;5.80;99.90;;;;;;5015389;28;20041;-84
2022/12/23 05:25:58;;;;;;;82.93;18.80;;;5.90;99.90;;;;;;5015260;28;20084;-84
2022/12/23 05:28:24;;;;;;;91.65;18.58;;;5.90;99.90;;;;;;5015234;28;20096;-84
2022/12/23 05:31:04;;;;;;;73.95;16.70;;;5.90;99.90;;;;;;5014991;28;20577;-84
2022/12/23 05:33:30;;;;;;;75.63;18.38;;;5.90;99.90;;;;;;5015090;28;20092;-84
2022/12/23 05:35:56;;;;;;;74.15;18.13;;;5.80;99.90;;;;;;5016353;28;20069;-84
2022/12/23 05:38:22;;;;;;;74.75;17.15;;;5.80;99.90;;;;;;5015246;28;20065;-84
2022/12/23 05:40:48;;;;;;;72.88;17.80;;;5.80;99.90;;;;;;5014652;28;20046;-84
2022/12/23 05:43:14;;;;;;;122.72;19.67;;;5.80;99.90;;;;;;5015095;28;20034;-85
2022/12/23 05:45:40;;;;;;;138.05;20.63;;;5.80;99.90;;;;;;5015059;28;20053;-85
2022/12/23 05:48:06;;;;;;;95.32;18.00;;;5.80;99.90;;;;;;5014996;28;20429;-85
2022/12/23 05:50:32;;;;;;;73.75;16.70;;;5.80;99.90;;;;;;5014824;28;20436;-84
2022/12/23 05:52:57;;;;;;;97.88;18.77;;;5.80;99.90;;;;;;5014694;28;20077;-84
2022/12/23 05:55:24;;;;;;;106.72;18.00;;;5.80;99.90;;;;;;5014822;28;20054;-84
2022/12/23 05:57:50;;;;;;;64.72;16.48;;;5.80;99.90;;;;;;5014518;28;20413;-84
2022/12/23 06:00:17;;;;;;;72.85;16.85;;;5.70;99.90;;;;;;5014526;28;20049;-84
2022/12/23 06:02:43;;;;;;;76.05;17.30;;;5.70;99.90;;;;;;5014366;28;20054;-84
2022/12/23 06:05:10;;;;;;;67.22;15.70;;;5.70;99.90;;;;;;5014800;28;20053;-84
2022/12/23 06:07:37;;;;;;;81.07;16.33;;;5.70;99.90;;;;;;5014474;28;20053;-84
2022/12/23 06:10:04;;;;;;;74.22;16.60;;;5.70;99.90;;;;;;5014313;28;20045;-84
2022/12/23 06:12:30;;;;;;;68.00;17.50;;;5.70;99.90;;;;;;5014504;28;20057;-84
2022/12/23 06:14:55;;;;;;;65.88;15.30;;;5.60;99.90;;;;;;5015505;28;20103;-84
2022/12/23 06:17:21;;;;;;;66.95;14.93;;;5.70;99.90;;;;;;5014458;28;20172;-84
2022/12/23 06:19:47;;;;;;;76.32;16.80;;;5.60;99.90;;;;;;5015338;28;20108;-84
2022/12/23 06:22:14;;;;;;;68.10;16.65;;;5.60;99.90;;;;;;5014157;28;20045;-84
2022/12/23 06:24:39;;;;;;;62.47;16.33;;;5.70;99.90;;;;;;5014234;28;20045;-84
2022/12/23 06:27:05;;;;;;;58.13;14.85;;;5.60;99.90;;;;;;5014293;28;20045;-84
2022/12/23 06:29:31;;;;;;;60.15;14.27;;;5.50;99.90;;;;;;5014210;28;20397;-84
2022/12/23 06:31:56;;;;;;;54.00;13.93;;;5.50;99.90;;;;;;5015317;28;20038;-84
2022/12/23 06:34:22;;;;;;;55.95;13.77;;;5.50;99.90;;;;;;5013460;28;20095;-84
2022/12/23 06:36:48;;;;;;;50.30;13.90;;;5.60;99.90;;;;;;5013929;28;20054;-84
2022/12/23 06:39:13;;;;;;;57.45;13.57;;;5.60;99.90;;;;;;5014007;28;20053;-84
2022/12/23 06:41:39;;;;;;;58.05;15.13;;;5.60;99.90;;;;;;5013160;28;20401;-84
2022/12/23 06:44:05;;;;;;;59.30;14.77;;;5.60;99.90;;;;;;5013348;28;20084;-84
2022/12/23 06:46:31;;;;;;;54.10;14.18;;;5.40;99.90;;;;;;5013819;28;20120;-85
2022/12/23 06:48:56;;;;;;;46.90;13.85;;;5.60;99.90;;;;;;5013740;28;20544;-84
2022/12/23 06:51:22;;;;;;;49.90;13.23;;;5.50;99.90;;;;;;5013950;28;20045;-84
2022/12/23 06:53:47;;;;;;;54.67;13.23;;;5.60;99.90;;;;;;5013757;28;20553;-84
2022/12/23 06:56:13;;;;;;;46.97;12.90;;;5.50;99.90;;;;;;5013770;28;20067;-84
2022/12/23 06:58:39;;;;;;;44.53;13.88;;;5.60;99.90;;;;;;5013403;28;20125;-84
2022/12/23 07:01:05;;;;;;;41.72;11.43;;;5.50;99.90;;;;;;5013471;28;20097;-84
2022/12/23 07:03:30;;;;;;;42.95;10.77;;;5.50;99.90;;;;;;5013529;28;20048;-84
2022/12/23 07:05:56;;;;;;;44.17;13.75;;;5.60;99.90;;;;;;5013432;28;20140;-84
2022/12/23 07:08:22;;;;;;;51.38;13.05;;;5.60;99.90;;;;;;5013227;28;20045;-84
2022/12/23 07:10:47;;;;;;;47.15;13.48;;;5.60;99.90;;;;;;5013251;28;20045;-84
2022/12/23 07:13:13;;;;;;;47.20;11.52;;;5.50;99.90;;;;;;5013542;28;20057;-84
2022/12/23 07:15:39;;;;;;;42.75;11.48;;;5.60;99.90;;;;;;5013219;28;20046;-84
2022/12/23 07:18:05;;;;;;;37.72;11.18;;;5.50;99.90;;;;;;5013074;28;20129;-85
2022/12/23 07:20:31;;;;;;;44.33;10.98;;;5.60;99.90;;;;;;5014318;28;20046;-84
2022/12/23 07:22:56;;;;;;;39.33;10.00;;;5.60;99.90;;;;;;5013251;28;20058;-84
2022/12/23 07:25:23;;;;;;;41.53;10.63;;;5.70;99.90;;;;;;5013289;28;20046;-84
2022/12/23 07:27:56;;;;;;;44.78;11.77;;;5.50;99.90;;;;;;5013216;28;20046;-84
2022/12/23 07:30:22;;;;;;;;;;;5.60;99.90;;;;;;5013693;28;20061;-84
2022/12/23 07:32:49;;;;;;;38.63;9.88;;;5.70;99.90;;;;;;5013015;28;20062;-84
2022/12/23 07:35:15;;;;;;;44.97;10.55;;;5.60;99.90;;;;;;5012413;28;20104;-84
2022/12/23 07:37:40;;;;;;;41.97;11.68;;;5.70;99.90;;;;;;5012951;28;20073;-84
2022/12/23 07:40:07;;;;;;;43.20;12.68;;;5.70;99.90;;;;;;5012707;28;20053;-84
2022/12/23 07:42:32;;;;;;;37.13;10.13;;;5.70;99.90;;;;;;5012195;28;20056;-84
2022/12/23 07:44:58;;;;;;;39.13;9.93;;;5.60;99.90;;;;;;5011715;28;20045;-84
2022/12/23 07:47:24;;;;;;;39.30;10.00;;;5.60;99.90;;;;;;5012466;28;20057;-84
2022/12/23 07:49:50;;;;;;;58.20;11.88;;;5.60;99.90;;;;;;5011904;28;20042;-85
2022/12/23 07:52:15;;;;;;;44.53;10.63;;;5.70;99.90;;;;;;5013998;28;20065;-84
2022/12/23 07:54:41;;;;;;;52.80;14.10;;;5.70;99.90;;;;;;5011656;28;20132;-85
2022/12/23 07:57:07;;;;;;;58.85;15.50;;;5.70;99.90;;;;;;5012590;28;20120;-84
2022/12/23 07:59:32;;;;;;;47.97;11.80;;;5.70;99.90;;;;;;5012662;28;20088;-84
2022/12/23 08:01:58;;;;;;;43.55;11.98;;;5.70;99.90;;;;;;5012250;28;20424;-86
2022/12/23 08:04:24;;;;;;;54.97;14.25;;;5.60;99.90;;;;;;5012339;28;20497;-86
2022/12/23 08:06:49;;;;;;;45.75;10.98;;;5.60;99.90;;;;;;5012584;28;20045;-85
2022/12/23 08:09:15;;;;;;;52.72;12.65;;;5.60;99.90;;;;;;5012343;28;20444;-85
2022/12/23 08:11:41;;;;;;;35.53;11.52;;;5.70;99.90;;;;;;5012321;28;20053;-84
2022/12/23 08:14:06;;;;;;;45.67;11.43;;;5.60;99.90;;;;;;5012301;28;20038;-83
2022/12/23 08:16:32;;;;;;;51.17;12.10;;;5.70;99.90;;;;;;5013744;28;20072;-86
2022/12/23 08:18:57;;;;;;;47.67;11.80;;;5.60;99.90;;;;;;5012159;28;20060;-84
2022/12/23 08:21:23;;;;;;;54.40;13.18;;;5.60;99.90;;;;;;5012371;28;20133;-85
2022/12/23 08:23:50;;;;;;;57.45;13.63;;;5.50;99.90;;;;;;5012487;28;20474;-84
2022/12/23 08:26:21;;;;;;;66.00;18.17;;;5.50;99.90;;;;;;5012285;28;20041;-84
2022/12/23 08:28:48;;;;;;;54.58;17.20;;;5.50;99.90;;;;;;5005357;28;20084;-83
2022/12/23 08:31:18;;;;;;;58.28;18.17;;;5.50;99.90;;;;;;4997530;28;20050;-83
2022/12/23 08:33:50;;;;;;;67.05;19.88;;;5.50;99.90;;;;;;4992386;28;20109;-84
2022/12/23 08:36:18;;;;;;;56.10;16.67;;;5.40;99.90;;;;;;4992294;28;20375;-84
2022/12/23 08:38:44;;;;;;;40.97;11.60;;;5.40;99.90;;;;;;4992493;28;20046;-84
2022/12/23 08:41:18;;;;;;;62.83;13.80;;;5.30;99.90;;;;;;4992247;28;20046;-85
2022/12/23 08:43:44;;;;;;;73.90;12.82;;;5.30;99.90;;;;;;4992203;28;20045;-84
2022/12/23 08:46:10;;;;;;;46.15;12.35;;;5.40;99.90;;;;;;4992538;28;20038;-84
2022/12/23 08:48:36;;;;;;;34.08;10.85;;;5.30;99.90;;;;;;4992395;28;20057;-85
2022/12/23 08:51:05;;;;;;;52.30;11.85;;;5.30;99.90;;;;;;4992234;28;20046;-82
2022/12/23 08:53:33;;;;;;;46.53;12.65;;;5.40;99.90;;;;;;4992105;28;20042;-83
2022/12/23 08:56:07;;;;;;;44.92;10.52;;;5.20;99.90;;;;;;4992294;28;20454;-83
2022/12/23 08:58:47;;;;;;;41.10;11.35;;;5.30;99.90;;;;;;4992049;28;20541;-83
2022/12/23 09:01:15;;;;;;;40.80;10.98;;;5.30;99.90;;;;;;4992188;28;20513;-84
2022/12/23 09:03:41;;;;;;;50.70;12.52;;;5.30;99.90;;;;;;4992362;28;20050;-83
2022/12/23 09:06:15;;;;;;;40.38;13.00;;;5.20;99.90;;;;;;4994481;28;20478;-88
2022/12/23 09:08:41;;;;;;;49.75;13.13;;;5.40;99.90;;;;;;4995590;28;20049;-84
2022/12/23 09:11:19;;;;;;;58.67;15.55;;;5.40;99.90;;;;;;4995507;28;20054;-84
2022/12/23 09:13:46;;;;;;;69.22;17.23;;;5.30;99.90;;;;;;5001465;28;20125;-82
2022/12/23 09:16:12;;;;;;;50.30;14.63;;;5.40;99.90;;;;;;5014648;28;20501;-84
2022/12/23 09:18:40;;;;;;;72.47;18.90;;;5.50;99.90;;;;;;5014963;28;20049;-82
2022/12/23 09:21:09;;;;;;;83.60;25.60;;;5.60;99.90;;;;;;5014737;28;20092;-82
2022/12/23 09:23:35;;;;;;;79.47;26.90;;;5.50;99.90;;;;;;5014865;28;20092;-82
2022/12/23 09:26:03;;;;;;;94.57;28.85;;;5.70;99.90;;;;;;5015116;28;20034;-82
2022/12/23 09:28:28;;;;;;;80.70;27.42;;;5.60;99.90;;;;;;5015025;28;20099;-82
2022/12/23 09:30:54;;;;;;;95.45;28.92;;;5.70;99.90;;;;;;5014778;28;20081;-83
2022/12/23 09:33:20;;;;;;;94.78;26.02;;;5.80;99.90;;;;;;5014880;28;20058;-81
2022/12/23 09:35:46;;;;;;;90.28;25.60;;;5.80;99.90;;;;;;5014611;28;20160;-82
2022/12/23 09:38:12;;;;;;;84.93;25.58;;;6.00;99.90;;;;;;5014630;28;20092;-82
2022/12/23 09:40:40;;;;;;;86.07;27.25;;;5.90;99.90;;;;;;5014132;28;20042;-82
2022/12/23 09:43:24;;;;;;;111.70;32.90;;;6.00;99.90;;;;;;5011736;28;20401;-82
2022/12/23 09:46:07;;;;;;;134.02;47.45;;;6.00;99.90;;;;;;5012413;28;20505;-81
2022/12/23 09:48:37;;;;;;;113.55;42.90;;;6.20;99.90;;;;;;5014467;28;20103;-83
2022/12/23 09:51:08;;;;;;;100.18;30.67;;;6.20;99.90;;;;;;5014398;28;20052;-82
2022/12/23 09:54:09;;;;;;;104.45;31.65;;;6.10;99.90;;;;;;5013530;28;20120;-81
2022/12/23 09:56:52;;;;;;;66.38;20.85;;;6.20;99.90;;;;;;5012186;28;20101;-83
2022/12/23 09:59:49;;;;;;;65.32;20.83;;;6.30;99.90;;;;;;5011022;28;20037;-80
2022/12/23 10:02:37;;;;;;;67.45;19.55;;;6.30;99.90;;;;;;5013849;28;20383;-82
2022/12/23 10:05:27;;;;;;;130.55;33.75;;;6.30;99.90;;;;;;5013211;28;20406;-82
2022/12/23 10:08:05;;;;;;;117.22;31.67;;;6.40;99.90;;;;;;5014286;28;20441;-81
2022/12/23 10:10:43;;;;;;;125.63;36.95;;;6.50;99.90;;;;;;5013955;28;20042;-81
2022/12/23 10:13:28;;;;;;;73.50;21.77;;;6.50;99.90;;;;;;5013835;28;20468;-82
2022/12/23 10:15:57;;;;;;;89.15;31.30;;;6.60;99.90;;;;;;5013487;28;20042;-82
2022/12/23 10:18:40;;;;;;;95.20;32.92;;;6.80;99.90;;;;;;5013159;28;20132;-82
2022/12/23 10:21:39;;;;;;;118.38;39.95;;;6.80;99.90;;;;;;5013875;28;20068;-82
2022/12/23 10:24:19;;;;;;;115.55;38.47;;;6.80;99.90;;;;;;5014447;28;20050;-82
2022/12/23 10:26:50;;;;;;;64.97;22.13;;;6.80;99.90;;;;;;5013764;28;20037;-81
2022/12/23 10:29:22;;;;;;;57.50;16.17;;;6.90;99.90;;;;;;5013678;28;20042;-82
2022/12/23 10:32:41;;;;;;;56.95;17.30;;;7.00;99.90;;;;;;5013616;28;20046;-81
2022/12/23 10:35:44;;;;;;;62.60;17.25;;;6.90;99.90;;;;;;4979237;28;20064;-81
2022/12/23 10:38:37;;;;;;;65.15;22.38;;;7.00;99.90;;;;;;5013359;28;20087;-83
2022/12/23 10:41:29;;;;;;;61.45;17.90;;;6.90;99.90;;;;;;5011828;28;20104;-82
2022/12/23 10:43:59;;;;;;;55.97;17.40;;;7.00;99.90;;;;;;5013758;28;20113;-81
2022/12/23 10:46:49;;;;;;;57.30;23.08;;;7.00;99.90;;;;;;5013413;28;20138;-82
2022/12/23 10:49:49;;;;;;;66.05;26.83;;;7.00;99.90;;;;;;5013571;28;20088;-81
2022/12/23 10:52:20;;;;;;;56.65;22.45;;;7.00;99.90;;;;;;5013364;28;20050;-81
2022/12/23 10:54:47;;;;;;;58.92;20.80;;;6.90;99.90;;;;;;5013064;28;20125;-81
2022/12/23 10:57:15;;;;;;;57.30;22.38;;;7.00;99.90;;;;;;5012995;28;20116;-79
2022/12/23 10:59:41;;;;;;;74.55;23.52;;;7.00;99.90;;;;;;5014294;28;20370;-82
2022/12/23 11:02:13;;;;;;;105.93;31.25;;;7.10;99.90;;;;;;5012991;28;20057;-81
2022/12/23 11:04:41;;;;;;;75.13;20.52;;;7.10;99.90;;;;;;5012989;28;20049;-81
2022/12/23 11:07:09;;;;;;;86.22;25.92;;;7.10;99.90;;;;;;5013020;28;20049;-81
2022/12/23 11:09:45;;;;;;;61.20;19.63;;;7.10;99.90;;;;;;5012769;28;20049;-81
2022/12/23 11:12:12;;;;;;;66.05;22.63;;;7.10;99.90;;;;;;5012976;28;20053;-82
2022/12/23 11:14:40;;;;;;;46.85;14.43;;;7.10;99.90;;;;;;5013071;28;20053;-77
2022/12/23 11:17:24;;;;;;;61.63;18.60;;;7.10;99.90;;;;;;5012874;28;20045;-78
2022/12/23 11:20:09;;;;;;;62.35;16.70;;;7.10;99.90;;;;;;5013020;28;20053;-80
2022/12/23 11:22:35;;;;;;;39.38;14.35;;;7.20;99.90;;;;;;5012746;28;20077;-80
2022/12/23 11:25:23;;;;;;;46.08;16.17;;;7.20;99.90;;;;;;5012689;28;20042;-82
2022/12/23 11:27:53;;;;;;;54.95;18.05;;;7.20;99.90;;;;;;5006465;28;20064;-81
2022/12/23 11:30:19;;;;;;;38.58;14.20;;;7.20;99.90;;;;;;5011869;28;20531;-83
2022/12/23 11:32:45;;;;;;;44.05;12.45;;;7.20;99.90;;;;;;5011125;28;20048;-83
2022/12/23 11:35:32;;;;;;;43.45;13.13;;;7.20;99.90;;;;;;5010994;28;20041;-83
2022/12/23 11:38:01;;;;;;;36.50;11.50;;;7.30;99.90;;;;;;5010051;28;20088;-82
2022/12/23 11:40:29;;;;;;;37.95;10.88;;;7.30;99.90;;;;;;5012227;28;20046;-83
2022/12/23 11:43:00;;;;;;;41.35;13.07;;;7.30;99.90;;;;;;5010927;28;20057;-83
2022/12/23 11:45:29;;;;;;;32.65;10.20;;;7.30;99.90;;;;;;5011255;28;20037;-83
2022/12/23 11:47:55;;;;;;;33.83;11.10;;;7.30;99.90;;;;;;5011159;28;20054;-82
2022/12/23 11:50:26;;;;;;;36.83;11.45;;;7.30;99.90;;;;;;5010961;28;20449;-83
2022/12/23 11:52:59;;;;;;;30.63;10.02;;;7.30;99.90;;;;;;4992837;28;20046;-83
2022/12/23 11:55:28;;;;;;;;;;;7.40;99.90;;;;;;4992956;28;20486;-82
2022/12/23 11:57:55;;;;;;;31.88;9.88;;;7.40;99.90;;;;;;4992922;28;19972;-82
2022/12/23 12:00:41;;;;;;;27.05;9.02;;;7.50;99.90;;;;;;4992826;28;20046;-82
2022/12/23 12:03:17;;;;;;;29.95;10.93;;;7.50;99.90;;;;;;4982755;28;20112;-82
2022/12/23 12:05:58;;;;;;;30.33;8.50;;;7.40;99.90;;;;;;5012100;28;20072;-82
2022/12/23 12:08:30;;;;;;;29.85;8.90;;;7.40;99.90;;;;;;5012269;28;20054;-81
2022/12/23 12:11:12;;;;;;;26.95;8.40;;;7.50;99.90;;;;;;5013586;28;20038;-81
2022/12/23 12:13:40;;;;;;;29.67;7.97;;;7.40;99.90;;;;;;5012300;28;20201;-81
2022/12/23 12:16:24;;;;;;;23.85;9.05;;;7.50;99.90;;;;;;5011506;28;20038;-81
2022/12/23 12:18:54;;;;;;;23.05;8.95;;;7.50;99.90;;;;;;5005651;28;20077;-77
2022/12/23 12:21:24;;;;;;;34.80;9.35;;;7.40;99.90;;;;;;5010180;28;20057;-84
2022/12/23 12:23:53;;;;;;;29.52;9.77;;;7.50;99.90;;;;;;5011347;28;20045;-80
2022/12/23 12:26:29;;;;;;;34.30;11.10;;;7.50;99.90;;;;;;5008194;28;20045;-81
2022/12/23 12:29:10;;;;;;;31.40;11.38;;;7.50;99.90;;;;;;4992117;28;20105;-81
2022/12/23 12:31:55;;;;;;;33.17;10.88;;;7.60;99.90;;;;;;4992439;28;20497;-82
2022/12/23 12:34:35;;;;;;;36.15;11.55;;;7.50;99.90;;;;;;4992270;28;20054;-81
2022/12/23 12:37:23;;;;;;;36.33;12.75;;;7.40;99.90;;;;;;4992400;28;20057;-82
2022/12/23 12:40:02;;;;;;;37.25;12.50;;;7.50;99.90;;;;;;4998169;28;20092;-81
2022/12/23 12:42:39;;;;;;;40.80;14.20;;;7.50;99.90;;;;;;5015042;28;20440;-81
2022/12/23 12:45:33;;;;;;;37.65;15.32;;;7.50;99.90;;;;;;5015773;28;20048;-81
2022/12/23 12:48:30;;;;;;;35.33;13.50;;;7.50;99.90;;;;;;5016380;28;20057;-82
2022/12/23 12:51:14;;;;;;;34.42;12.60;;;7.40;99.90;;;;;;4998071;28;20109;-81
2022/12/23 12:54:05;;;;;;;40.13;13.38;;;7.40;99.90;;;;;;4997588;28;20060;-82
2022/12/23 12:56:42;;;;;;;42.63;16.20;;;7.30;99.90;;;;;;5003658;28;20116;-81
2022/12/23 12:59:33;;;;;;;35.35;14.35;;;7.40;99.90;;;;;;5015328;28;20089;-82
2022/12/23 13:02:30;;;;;;;41.40;14.25;;;7.40;99.90;;;;;;5009719;28;20064;-82
2022/12/23 13:05:27;;;;;;;36.70;13.30;;;7.40;99.90;;;;;;5014447;28;20045;-82
2022/12/23 13:08:18;;;;;;;34.97;13.02;;;7.40;99.90;;;;;;5015464;28;20079;-83
2022/12/23 13:11:06;;;;;;;47.42;17.70;;;7.40;99.90;;;;;;5015157;28;20410;-83
2022/12/23 13:13:47;;;;;;;69.55;19.92;;;7.40;99.90;;;;;;5015002;28;20049;-86
2022/12/23 13:16:40;;;;;;;41.33;14.85;;;7.40;99.90;;;;;;5015110;28;20092;-84
2022/12/23 13:19:21;;;;;;;44.38;16.00;;;7.20;99.90;;;;;;5015052;28;20401;-80
2022/12/23 13:22:10;;;;;;;87.05;25.42;;;7.30;99.90;;;;;;5015073;28;20053;-81
2022/12/23 13:24:57;;;;;;;50.72;16.38;;;7.40;99.90;;;;;;5014973;28;20132;-79